Flight Track Log - Related Links

Times and Time Zones

All times are in EST time to prevent confusion due to time zone crossing. See the N496DA flight status page for this flight to view local times or setup timezone preferences in your user account.

Time Position Orientation Groundspeed Altitude Reporting Facility
EST Latitude Longitude Course Direction KTS MPH feet Rate Location/Type
Mon 02:04:16 PM 28.7833 -81.2167 53° Northeast 99 114 600  Level Orlando TRACON
Mon 02:06:22 PM 28.8167 -81.1667 53° Northeast 106 122 1,900 677 Climbing Orlando TRACON
Mon 02:07:22 PM 28.8500 -81.1333 41° Northeast 117 135 2,700 626 Climbing Orlando TRACON
Mon 02:08:17 PM 28.8667 -81.1167 41° Northeast 105 121 3,100 545 Climbing Orlando TRACON
Mon 02:09:23 PM 28.8667 -81.1500 270° West 100 115 3,800 446 Climbing Orlando TRACON
Mon 02:10:18 PM 28.8667 -81.1833 270° West 121 139 4,000 99 Climbing Orlando TRACON
Mon 02:11:24 PM 28.8500 -81.2333 249° West 136 157 4,000 -50 Level Orlando TRACON
Mon 02:12:18 PM 28.8500 -81.2667 270° West 138 159 3,900 150 Descending Orlando TRACON
Mon 02:13:24 PM 28.8333 -81.3167 249° West 134 154 4,300 449 Climbing Orlando TRACON
Mon 02:15:25 PM 28.8333 -81.3833 270° West 107 123 5,300 545 Climbing Orlando TRACON
Mon 02:16:31 PM 28.8167 -81.4167 240° Southwest 83 96 6,000 556 Climbing Orlando TRACON
Mon 02:17:13 PM 28.8167 -81.4333 270° West 90 104 6,300 474 Climbing Orlando TRACON
Mon 02:18:25 PM 28.8167 -81.4667 270° West 98 113 6,900 500 Climbing Orlando TRACON
Mon 02:19:25 PM 28.8000 -81.5000 240° Southwest 100 115 7,400 480 Climbing Orlando TRACON
Mon 02:21:20 PM 28.7833 -81.5500 249° West 87 100 8,300 409 Climbing Orlando TRACON
Mon 02:22:21 PM 28.7833 -81.5833 270° West 90 104 8,600 344 Climbing Orlando TRACON
Mon 02:23:57 PM 28.7761 -81.6253 259° West 91 105 9,200 382 Climbing Jacksonville Center
Mon 02:24:58 PM 28.7700 -81.6539 256° West 89 102 9,600 393 Climbing Jacksonville Center
Mon 02:25:59 PM 28.7661 -81.6822 261° West 83 96 10,000 131 Climbing Jacksonville Center
Mon 02:28:01 PM 28.7667 -81.7439 266° West 125 144 10,000  Level Jacksonville Center
Mon 02:29:03 PM 28.7878 -81.7744 308° West 130 150 10,000  Level Jacksonville Center
Mon 02:31:05 PM 28.8281 -81.8428 304° West 124 143 10,000  Level Jacksonville Center
Mon 02:32:07 PM 28.8469 -81.8733 305° West 120 138 10,000  Level Jacksonville Center
Mon 02:33:08 PM 28.8703 -81.9039 311° West 124 143 10,000  Level Jacksonville Center
Mon 02:34:10 PM 28.8914 -81.9369 306° West 127 146 10,000  Level Jacksonville Center
Mon 02:35:11 PM 28.9103 -81.9675 305° West 124 143 10,000  Level Jacksonville Center
Mon 02:36:12 PM 28.9314 -82.0006 306° West 123 142 10,000  Level Jacksonville Center
Mon 02:37:14 PM 28.9547 -82.0336 309° West 125 144 10,000  Level Jacksonville Center
Mon 02:38:15 PM 28.9758 -82.0642 308° West 125 144 10,000  Level Jacksonville Center
Mon 02:39:17 PM 28.9947 -82.0997 301° West 125 144 10,000  Level Jacksonville Center
Mon 02:40:18 PM 29.0158 -82.1303 308° West 123 142 10,000  Level Jacksonville Center
Mon 02:41:19 PM 29.0389 -82.1633 309° West 124 143 10,000 -49 Level Jacksonville Center
Mon 02:42:20 PM 29.0581 -82.1942 305° West 121 139 9,900  Descending Jacksonville Center
Mon 02:44:23 PM 29.0981 -82.2581 306° West 121 139 10,000 32 Climbing Jacksonville Center
Mon 02:45:25 PM 29.1189 -82.2911 306° West 122 140 10,000  Level Jacksonville Center
Mon 02:46:26 PM 29.1358 -82.3219 302° West 123 142 10,000  Level Jacksonville Center
Mon 02:47:27 PM 29.1589 -82.3528 311° West 118 136 10,000  Level Jacksonville Center
Mon 02:49:31 PM 29.1989 -82.4167 306° West 120 138 10,000  Level Jacksonville Center
Mon 02:50:32 PM 29.2197 -82.4500 306° West 121 139 10,000  Level Jacksonville Center
Mon 02:51:33 PM 29.2408 -82.4808 308° West 121 139 10,000  Level Jacksonville Center
Mon 02:52:35 PM 29.2597 -82.5117 305° West 121 139 10,000  Level Jacksonville Center
Mon 02:53:23 PM 29.2744 -82.5356 305° West 123 142 10,000  Level Jacksonville Center
Mon 02:54:23 PM 29.2953 -82.5686 306° West 123 142 10,000 -88 Level Jacksonville Center
Mon 02:54:31 PM 29.2975 -82.5711 316° Northwest 118 136 9,900  Descending Jacksonville Center
Mon 02:55:33 PM 29.3183 -82.6044 306° West 118 136 10,000 54 Climbing Jacksonville Center
Mon 02:56:23 PM 29.3331 -82.6258 308° West 118 136 10,000  Level Jacksonville Center
Mon 02:57:23 PM 29.3519 -82.6544 307° West 118 136 10,000  Level Jacksonville Center
Mon 02:58:23 PM 29.3686 -82.6828 304° West 118 136 10,000  Level Jacksonville Center
Mon 02:59:23 PM 29.3894 -82.7139 308° West 118 136 10,000  Level Jacksonville Center
Mon 03:01:23 PM 29.4250 -82.7758 303° West 123 142 10,000  Level Jacksonville Center
Mon 03:02:23 PM 29.4461 -82.8067 308° West 123 142 10,000  Level Jacksonville Center
Mon 03:04:23 PM 29.4878 -82.8639 310° West 123 142 10,000  Level Jacksonville Center
Mon 03:05:23 PM 29.5067 -82.8925 307° West 128 147 10,000  Level Jacksonville Center
Mon 03:07:23 PM 29.5461 -82.9569 305° West 123 142 10,000  Level Jacksonville Center
Mon 03:09:23 PM 29.5775 -83.0144 302° West 118 136 10,000  Level Jacksonville Center
Mon 03:10:23 PM 29.5942 -83.0456 302° West 118 136 10,000  Level Jacksonville Center
Mon 03:11:23 PM 29.6150 -83.0742 310° West 118 136 10,000  Level Jacksonville Center
Mon 03:12:23 PM 29.6336 -83.1028 307° West 118 136 10,000  Level Jacksonville Center
Mon 03:13:23 PM 29.6503 -83.1339 302° West 118 136 10,000  Level Jacksonville Center
Mon 03:14:23 PM 29.6692 -83.1628 307° West 118 136 10,000  Level Jacksonville Center
Mon 03:15:23 PM 29.6858 -83.1892 306° West 118 136 10,000  Level Jacksonville Center
Mon 03:16:23 PM 29.7067 -83.2203 308° West 123 142 10,000  Level Jacksonville Center
Mon 03:17:23 PM 29.7233 -83.2464 306° West 118 136 10,000  Level Jacksonville Center
Mon 03:18:23 PM 29.7439 -83.2825 303° West 118 136 10,000  Level Jacksonville Center
Mon 03:19:23 PM 29.7606 -83.3114 304° West 118 136 10,000  Level Jacksonville Center
Mon 03:20:23 PM 29.7792 -83.3400 307° West 118 136 10,000  Level Jacksonville Center
Mon 03:21:23 PM 29.7958 -83.3689 304° West 118 136 10,000  Level Jacksonville Center
Mon 03:22:23 PM 29.8144 -83.3978 307° West 118 136 10,000  Level Jacksonville Center
Mon 03:23:23 PM 29.8311 -83.4242 306° West 113 130 10,000  Level Jacksonville Center
Mon 03:24:23 PM 29.8478 -83.4531 304° West 113 130 10,000  Level Jacksonville Center
Mon 03:26:23 PM 29.8850 -83.5083 308° West 108 124 10,000  Level Jacksonville Center
Mon 03:27:23 PM 29.9017 -83.5372 304° West 108 124 10,000  Level Jacksonville Center
Mon 03:28:23 PM 29.9181 -83.5658 303° West 108 124 10,000  Level Jacksonville Center
Mon 03:29:23 PM 29.9347 -83.5900 309° West 108 124 10,000  Level Jacksonville Center
Mon 03:30:23 PM 29.9514 -83.6189 304° West 108 124 10,000  Level Jacksonville Center
Mon 03:31:23 PM 29.9700 -83.6478 307° West 108 124 10,000  Level Jacksonville Center
Mon 03:32:23 PM 29.9864 -83.6767 303° West 108 124 10,000  Level Jacksonville Center
Mon 03:33:23 PM 30.0031 -83.7033 306° West 108 124 10,000  Level Jacksonville Center
Mon 03:34:23 PM 30.0194 -83.7297 306° West 108 124 10,000  Level Jacksonville Center
Mon 03:35:23 PM 30.0403 -83.7564 312° West 108 124 10,000  Level Jacksonville Center
Mon 03:36:23 PM 30.0650 -83.7781 323° Northwest 108 124 10,000  Level Jacksonville Center
Mon 03:38:00 PM 30.0938 -83.8301 303° West  Level FlightAware Approximate
Mon 03:45:00 PM 30.2183 -84.0560 303° West  Level FlightAware Approximate
Mon 03:46:00 PM 30.2360 -84.0887 300° West  Level FlightAware Approximate
Mon 03:47:00 PM 30.2526 -84.1218 300° West  Level FlightAware Approximate
Mon 03:48:00 PM 30.2692 -84.1550 300° West  Level FlightAware Approximate
Mon 03:49:00 PM 30.2866 -84.1874 313° West  Level FlightAware Approximate
Mon 03:50:00 PM 30.3091 -84.2155 313° West  Level FlightAware Approximate
Mon 03:51:00 PM 30.3316 -84.2436 313° West  Level FlightAware Approximate
Mon 03:52:00 PM 30.3525 -84.2729 295° West  Level FlightAware Approximate
Mon 03:53:00 PM 30.3664 -84.3077 295° West  Level FlightAware Approximate
Mon 03:54:00 PM 30.3804 -84.3425 295° West  Level FlightAware Approximate
Mon 03:55:00 PM 30.3833 -84.3500 295° West  Level FlightAware Approximate
Mon 03:56:00 PM 30.3967 -84.3509 295° West  Level Estimated
Mon 03:57:00 PM 30.3967 -84.3509 295° West  Level Estimated
Mon 03:58:00 PM 30.3967 -84.3509 295° West  Level Estimated
Mon 03:59:00 PM 30.3967 -84.3509 295° West  Level Estimated
Mon 04:00:00 PM 30.3967 -84.3509 295° West  Level Estimated
Mon 04:01:00 PM 30.3967 -84.3509 295° West  Level Estimated

Login

Don't have an account? Register now (free) for customized features, flight alerts, and more!